sensor_id;sensor_type;location;lat;lon;timestamp;pressure;altitude;pressure_sealevel;temperature;humidity
46756;BME280;32506;52.826;-1.192;2023-05-21T00:01:00;101869.50;;;10.97;35.81
46756;BME280;32506;52.826;-1.192;2023-05-21T00:03:26;101869.84;;;10.94;35.65
46756;BME280;32506;52.826;-1.192;2023-05-21T00:05:53;101858.88;;;10.89;35.90
46756;BME280;32506;52.826;-1.192;2023-05-21T00:08:19;101861.94;;;10.86;35.45
46756;BME280;32506;52.826;-1.192;2023-05-21T00:10:45;101864.13;;;10.82;35.93
46756;BME280;32506;52.826;-1.192;2023-05-21T00:13:10;101857.66;;;10.77;36.01
46756;BME280;32506;52.826;-1.192;2023-05-21T00:15:36;101851.88;;;10.73;36.15
46756;BME280;32506;52.826;-1.192;2023-05-21T00:18:01;101849.56;;;10.70;36.02
46756;BME280;32506;52.826;-1.192;2023-05-21T00:20:27;101842.09;;;10.65;36.05
46756;BME280;32506;52.826;-1.192;2023-05-21T00:22:56;101842.44;;;10.62;36.56
46756;BME280;32506;52.826;-1.192;2023-05-21T00:25:22;101841.31;;;10.56;36.03
46756;BME280;32506;52.826;-1.192;2023-05-21T00:27:47;101845.38;;;10.52;36.02
46756;BME280;32506;52.826;-1.192;2023-05-21T00:30:13;101848.41;;;10.49;36.05
46756;BME280;32506;52.826;-1.192;2023-05-21T00:32:40;101853.28;;;10.46;36.01
46756;BME280;32506;52.826;-1.192;2023-05-21T00:35:06;101857.34;;;10.41;35.87
46756;BME280;32506;52.826;-1.192;2023-05-21T00:37:31;101851.50;;;10.38;36.10
46756;BME280;32506;52.826;-1.192;2023-05-21T00:39:59;101852.84;;;10.34;36.02
46756;BME280;32506;52.826;-1.192;2023-05-21T00:42:26;101848.88;;;10.30;35.91
46756;BME280;32506;52.826;-1.192;2023-05-21T00:44:55;101846.75;;;10.25;36.08
46756;BME280;32506;52.826;-1.192;2023-05-21T00:47:21;101851.44;;;10.23;35.98
46756;BME280;32506;52.826;-1.192;2023-05-21T00:49:48;101849.31;;;10.18;36.40
46756;BME280;32506;52.826;-1.192;2023-05-21T00:52:16;101855.03;;;10.15;36.10
46756;BME280;32506;52.826;-1.192;2023-05-21T00:54:46;101840.34;;;10.11;36.10
46756;BME280;32506;52.826;-1.192;2023-05-21T00:57:13;101848.72;;;10.08;36.18
46756;BME280;32506;52.826;-1.192;2023-05-21T00:59:38;101843.75;;;10.05;36.41
46756;BME280;32506;52.826;-1.192;2023-05-21T01:02:04;101838.75;;;10.02;36.46
46756;BME280;32506;52.826;-1.192;2023-05-21T01:04:31;101834.59;;;9.99;36.50
46756;BME280;32506;52.826;-1.192;2023-05-21T01:06:56;101828.78;;;9.96;36.49
46756;BME280;32506;52.826;-1.192;2023-05-21T01:09:25;101830.16;;;9.91;36.47
46756;BME280;32506;52.826;-1.192;2023-05-21T01:11:50;101832.81;;;9.91;36.49
46756;BME280;32506;52.826;-1.192;2023-05-21T01:14:17;101830.66;;;9.87;36.63
46756;BME280;32506;52.826;-1.192;2023-05-21T01:16:45;101821.34;;;9.83;36.47
46756;BME280;32506;52.826;-1.192;2023-05-21T01:19:17;101823.38;;;9.81;36.64
46756;BME280;32506;52.826;-1.192;2023-05-21T01:21:45;101814.06;;;9.77;36.63
46756;BME280;32506;52.826;-1.192;2023-05-21T01:24:13;101815.25;;;9.74;36.49
46756;BME280;32506;52.826;-1.192;2023-05-21T01:26:38;101803.91;;;9.72;36.37
46756;BME280;32506;52.826;-1.192;2023-05-21T01:29:09;101799.94;;;9.68;36.32
46756;BME280;32506;52.826;-1.192;2023-05-21T01:31:51;101804.63;;;9.66;36.50
46756;BME280;32506;52.826;-1.192;2023-05-21T01:34:25;101807.00;;;9.61;36.51
46756;BME280;32506;52.826;-1.192;2023-05-21T01:36:59;101810.84;;;9.58;36.51
46756;BME280;32506;52.826;-1.192;2023-05-21T01:39:32;101813.69;;;9.56;36.75
46756;BME280;32506;52.826;-1.192;2023-05-21T01:42:01;101808.72;;;9.53;36.73
46756;BME280;32506;52.826;-1.192;2023-05-21T01:44:27;101812.72;;;9.49;36.92
46756;BME280;32506;52.826;-1.192;2023-05-21T01:46:54;101809.41;;;9.47;36.52
46756;BME280;32506;52.826;-1.192;2023-05-21T01:49:21;101801.75;;;9.44;37.01
46756;BME280;32506;52.826;-1.192;2023-05-21T01:51:48;101802.94;;;9.42;36.79
46756;BME280;32506;52.826;-1.192;2023-05-21T01:54:13;101794.44;;;9.38;36.77
46756;BME280;32506;52.826;-1.192;2023-05-21T01:56:39;101789.47;;;9.35;36.50
46756;BME280;32506;52.826;-1.192;2023-05-21T01:59:04;101795.13;;;9.32;36.76
46756;BME280;32506;52.826;-1.192;2023-05-21T02:01:30;101795.47;;;9.29;36.63
46756;BME280;32506;52.826;-1.192;2023-05-21T02:03:56;101793.19;;;9.26;36.59
46756;BME280;32506;52.826;-1.192;2023-05-21T02:06:22;101793.69;;;9.21;36.59
46756;BME280;32506;52.826;-1.192;2023-05-21T02:08:48;101788.69;;;9.18;36.65
46756;BME280;32506;52.826;-1.192;2023-05-21T02:11:13;101797.88;;;9.15;36.61
46756;BME280;32506;52.826;-1.192;2023-05-21T02:13:38;101807.06;;;9.13;36.56
46756;BME280;32506;52.826;-1.192;2023-05-21T02:16:04;101814.59;;;9.09;36.26
46756;BME280;32506;52.826;-1.192;2023-05-21T02:18:34;101814.09;;;9.05;36.68
46756;BME280;32506;52.826;-1.192;2023-05-21T02:21:00;101814.44;;;9.02;36.65
46756;BME280;32506;52.826;-1.192;2023-05-21T02:23:26;101814.78;;;8.99;36.96
46756;BME280;32506;52.826;-1.192;2023-05-21T02:25:51;101815.94;;;8.97;36.84
46756;BME280;32506;52.826;-1.192;2023-05-21T02:28:17;101816.28;;;8.94;36.68
46756;BME280;32506;52.826;-1.192;2023-05-21T02:30:42;101816.66;;;8.90;36.74
46756;BME280;32506;52.826;-1.192;2023-05-21T02:33:07;101817.81;;;8.88;36.83
46756;BME280;32506;52.826;-1.192;2023-05-21T02:35:33;101821.66;;;8.85;36.66
46756;BME280;32506;52.826;-1.192;2023-05-21T02:37:58;101817.50;;;8.83;36.81
46756;BME280;32506;52.826;-1.192;2023-05-21T02:40:27;101809.84;;;8.80;36.89
46756;BME280;32506;52.826;-1.192;2023-05-21T02:42:52;101819.03;;;8.77;36.91
46756;BME280;32506;52.826;-1.192;2023-05-21T02:45:18;101815.69;;;8.75;36.62
46756;BME280;32506;52.826;-1.192;2023-05-21T02:47:43;101813.38;;;8.72;36.81
46756;BME280;32506;52.826;-1.192;2023-05-21T02:50:09;101813.53;;;8.70;37.09
46756;BME280;32506;52.826;-1.192;2023-05-21T02:52:34;101809.38;;;8.68;36.71
46756;BME280;32506;52.826;-1.192;2023-05-21T02:55:00;101805.22;;;8.65;36.92
46756;BME280;32506;52.826;-1.192;2023-05-21T02:57:25;101808.06;;;8.64;37.11
46756;BME280;32506;52.826;-1.192;2023-05-21T02:59:51;101806.56;;;8.61;36.88
46756;BME280;32506;52.826;-1.192;2023-05-21T03:02:16;101807.91;;;8.57;36.94
46756;BME280;32506;52.826;-1.192;2023-05-21T03:04:42;101806.41;;;8.54;36.69
46756;BME280;32506;52.826;-1.192;2023-05-21T03:07:12;101795.25;;;8.51;36.88
46756;BME280;32506;52.826;-1.192;2023-05-21T03:09:39;101795.41;;;8.49;36.91
46756;BME280;32506;52.826;-1.192;2023-05-21T03:12:06;101800.25;;;8.46;36.94
46756;BME280;32506;52.826;-1.192;2023-05-21T03:14:32;101789.91;;;8.43;36.73
46756;BME280;32506;52.826;-1.192;2023-05-21T03:16:58;101792.75;;;8.41;36.88
46756;BME280;32506;52.826;-1.192;2023-05-21T03:19:23;101791.25;;;8.38;36.78
46756;BME280;32506;52.826;-1.192;2023-05-21T03:21:49;101786.25;;;8.35;36.80
46756;BME280;32506;52.826;-1.192;2023-05-21T03:24:14;101790.09;;;8.33;36.89
46756;BME280;32506;52.826;-1.192;2023-05-21T03:26:40;101787.75;;;8.30;36.61
46756;BME280;32506;52.826;-1.192;2023-05-21T03:29:05;101789.59;;;8.29;36.81
46756;BME280;32506;52.826;-1.192;2023-05-21T03:31:31;101777.59;;;8.25;36.79
46756;BME280;32506;52.826;-1.192;2023-05-21T03:33:56;101787.56;;;8.23;36.60
46756;BME280;32506;52.826;-1.192;2023-05-21T03:36:22;101784.44;;;8.19;36.82
46756;BME280;32506;52.826;-1.192;2023-05-21T03:38:47;101788.25;;;8.17;36.87
46756;BME280;32506;52.826;-1.192;2023-05-21T03:41:12;101791.28;;;8.14;36.85
46756;BME280;32506;52.826;-1.192;2023-05-21T03:43:38;101785.25;;;8.12;36.67
46756;BME280;32506;52.826;-1.192;2023-05-21T03:46:04;101794.41;;;8.09;36.54
46756;BME280;32506;52.826;-1.192;2023-05-21T03:48:29;101784.09;;;8.06;36.60
46756;BME280;32506;52.826;-1.192;2023-05-21T03:50:55;101784.41;;;8.03;36.58
46756;BME280;32506;52.826;-1.192;2023-05-21T03:53:21;101792.75;;;8.00;36.20
46756;BME280;32506;52.826;-1.192;2023-05-21T03:55:46;101795.75;;;7.97;36.13
46756;BME280;32506;52.826;-1.192;2023-05-21T03:58:21;101789.09;;;7.93;36.08
46756;BME280;32506;52.826;-1.192;2023-05-21T04:00:47;101793.75;;;7.90;36.31
46756;BME280;32506;52.826;-1.192;2023-05-21T04:03:12;101795.91;;;7.87;35.85
46756;BME280;32506;52.826;-1.192;2023-05-21T04:05:40;101801.56;;;7.84;36.00
46756;BME280;32506;52.826;-1.192;2023-05-21T04:08:05;101797.38;;;7.81;36.17
46756;BME280;32506;52.826;-1.192;2023-05-21T04:10:31;101784.41;;;7.78;36.30
46756;BME280;32506;52.826;-1.192;2023-05-21T04:12:56;101786.41;;;7.76;35.84
46756;BME280;32506;52.826;-1.192;2023-05-21T04:15:22;101782.25;;;7.73;36.14
46756;BME280;32506;52.826;-1.192;2023-05-21T04:17:48;101785.22;;;7.70;35.97
46756;BME280;32506;52.826;-1.192;2023-05-21T04:20:14;101781.06;;;7.68;36.44
46756;BME280;32506;52.826;-1.192;2023-05-21T04:22:41;101774.25;;;7.65;36.46
46756;BME280;32506;52.826;-1.192;2023-05-21T04:25:07;101772.91;;;7.61;36.05
46756;BME280;32506;52.826;-1.192;2023-05-21T04:27:33;101774.91;;;7.59;35.97
46756;BME280;32506;52.826;-1.192;2023-05-21T04:29:58;101790.03;;;7.59;36.00
46756;BME280;32506;52.826;-1.192;2023-05-21T04:32:24;101785.91;;;7.56;35.91
46756;BME280;32506;52.826;-1.192;2023-05-21T04:34:49;101787.88;;;7.54;35.96
46756;BME280;32506;52.826;-1.192;2023-05-21T04:37:15;101788.22;;;7.51;36.54
46756;BME280;32506;52.826;-1.192;2023-05-21T04:39:44;101790.19;;;7.49;36.26
46756;BME280;32506;52.826;-1.192;2023-05-21T04:42:09;101798.34;;;7.47;36.40
46756;BME280;32506;52.826;-1.192;2023-05-21T04:44:36;101788.84;;;7.45;35.79
46756;BME280;32506;52.826;-1.192;2023-05-21T04:47:02;101788.03;;;7.44;36.22
46756;BME280;32506;52.826;-1.192;2023-05-21T04:49:28;101783.84;;;7.42;36.13
46756;BME280;32506;52.826;-1.192;2023-05-21T04:51:54;101784.84;;;7.41;36.00
46756;BME280;32506;52.826;-1.192;2023-05-21T04:54:19;101783.00;;;7.41;35.94
46756;BME280;32506;52.826;-1.192;2023-05-21T04:56:45;101791.16;;;7.39;35.96
46756;BME280;32506;52.826;-1.192;2023-05-21T04:59:11;101793.00;;;7.39;36.62
46756;BME280;32506;52.826;-1.192;2023-05-21T05:01:37;101780.69;;;7.38;36.49
46756;BME280;32506;52.826;-1.192;2023-05-21T05:04:03;101778.19;;;7.36;36.27
46756;BME280;32506;52.826;-1.192;2023-05-21T05:06:28;101771.03;;;7.37;36.21
46756;BME280;32506;52.826;-1.192;2023-05-21T05:08:54;101771.88;;;7.37;36.42
46756;BME280;32506;52.826;-1.192;2023-05-21T05:11:19;101770.03;;;7.38;36.88
46756;BME280;32506;52.826;-1.192;2023-05-21T05:13:44;101773.53;;;7.38;37.04
46756;BME280;32506;52.826;-1.192;2023-05-21T05:16:10;101768.06;;;7.40;37.25
46756;BME280;32506;52.826;-1.192;2023-05-21T05:18:37;101768.72;;;7.42;36.77
46756;BME280;32506;52.826;-1.192;2023-05-21T05:21:02;101767.72;;;7.43;37.08
46756;BME280;32506;52.826;-1.192;2023-05-21T05:23:28;101770.22;;;7.45;37.09
46756;BME280;32506;52.826;-1.192;2023-05-21T05:25:53;101767.22;;;7.48;37.27
46756;BME280;32506;52.826;-1.192;2023-05-21T05:28:18;101762.75;;;7.48;37.42
46756;BME280;32506;52.826;-1.192;2023-05-21T05:30:44;101761.59;;;7.51;37.42
46756;BME280;32506;52.826;-1.192;2023-05-21T05:33:09;101771.91;;;7.54;37.18
46756;BME280;32506;52.826;-1.192;2023-05-21T05:35:36;101769.94;;;7.56;37.63
46756;BME280;32506;52.826;-1.192;2023-05-21T05:38:01;101775.75;;;7.60;37.50
46756;BME280;32506;52.826;-1.192;2023-05-21T05:40:27;101778.91;;;7.63;37.73
46756;BME280;32506;52.826;-1.192;2023-05-21T05:42:52;101783.06;;;7.66;37.86
46756;BME280;32506;52.826;-1.192;2023-05-21T05:45:18;101776.59;;;7.68;38.07
46756;BME280;32506;52.826;-1.192;2023-05-21T05:47:44;101773.44;;;7.73;38.27
46756;BME280;32506;52.826;-1.192;2023-05-21T05:50:10;101770.44;;;7.76;38.26
46756;BME280;32506;52.826;-1.192;2023-05-21T05:52:36;101772.63;;;7.81;38.27
46756;BME280;32506;52.826;-1.192;2023-05-21T05:55:01;101776.59;;;7.85;37.95
46756;BME280;32506;52.826;-1.192;2023-05-21T05:57:27;101774.44;;;7.88;38.09
46756;BME280;32506;52.826;-1.192;2023-05-21T05:59:52;101766.13;;;7.92;38.20
46756;BME280;32506;52.826;-1.192;2023-05-21T06:02:18;101767.28;;;7.97;38.35
46756;BME280;32506;52.826;-1.192;2023-05-21T06:04:43;101768.78;;;8.00;38.06
46756;BME280;32506;52.826;-1.192;2023-05-21T06:07:09;101771.78;;;8.05;38.53
46756;BME280;32506;52.826;-1.192;2023-05-21T06:09:34;101778.44;;;8.09;38.24
46756;BME280;32506;52.826;-1.192;2023-05-21T06:12:00;101788.59;;;8.14;38.08
46756;BME280;32506;52.826;-1.192;2023-05-21T06:14:25;101784.44;;;8.19;38.82
46756;BME280;32506;52.826;-1.192;2023-05-21T06:16:50;101784.91;;;8.23;39.20
46756;BME280;32506;52.826;-1.192;2023-05-21T06:19:16;101785.25;;;8.28;39.07
46756;BME280;32506;52.826;-1.192;2023-05-21T06:21:41;101787.44;;;8.33;38.92
46756;BME280;32506;52.826;-1.192;2023-05-21T06:24:07;101787.75;;;8.38;38.77
46756;BME280;32506;52.826;-1.192;2023-05-21T06:26:32;101793.38;;;8.43;38.97
46756;BME280;32506;52.826;-1.192;2023-05-21T06:28:58;101791.09;;;8.48;39.21
46756;BME280;32506;52.826;-1.192;2023-05-21T06:31:23;101787.75;;;8.54;39.25
46756;BME280;32506;52.826;-1.192;2023-05-21T06:33:48;101791.56;;;8.60;39.62
46756;BME280;32506;52.826;-1.192;2023-05-21T06:36:14;101782.72;;;8.68;39.85
46756;BME280;32506;52.826;-1.192;2023-05-21T06:38:40;101785.72;;;8.73;39.74
46756;BME280;32506;52.826;-1.192;2023-05-21T06:41:07;101781.34;;;8.80;39.96
46756;BME280;32506;52.826;-1.192;2023-05-21T06:43:32;101784.16;;;8.87;40.06
46756;BME280;32506;52.826;-1.192;2023-05-21T06:45:58;101785.13;;;8.94;40.77
46756;BME280;32506;52.826;-1.192;2023-05-21T06:48:23;101786.13;;;9.01;40.47
46756;BME280;32506;52.826;-1.192;2023-05-21T06:50:48;101779.06;;;9.09;40.90
46756;BME280;32506;52.826;-1.192;2023-05-21T06:53:14;101780.88;;;9.16;41.54
46756;BME280;32506;52.826;-1.192;2023-05-21T06:55:41;101779.84;;;9.26;41.75
46756;BME280;32506;52.826;-1.192;2023-05-21T06:58:10;101780.59;;;9.34;41.88
46756;BME280;32506;52.826;-1.192;2023-05-21T07:00:36;101785.91;;;9.43;42.03
46756;BME280;32506;52.826;-1.192;2023-05-21T07:03:01;101783.84;;;9.53;42.04
46756;BME280;32506;52.826;-1.192;2023-05-21T07:05:27;101781.13;;;9.61;42.64
46756;BME280;32506;52.826;-1.192;2023-05-21T07:07:52;101785.22;;;9.72;42.41
46756;BME280;32506;52.826;-1.192;2023-05-21T07:10:18;101778.63;;;9.83;42.68
46756;BME280;32506;52.826;-1.192;2023-05-21T07:12:44;101780.91;;;9.94;44.27
46756;BME280;32506;52.826;-1.192;2023-05-21T07:15:09;101777.16;;;10.03;43.41
46756;BME280;32506;52.826;-1.192;2023-05-21T07:17:35;101781.22;;;10.14;43.10
46756;BME280;32506;52.826;-1.192;2023-05-21T07:20:02;101781.63;;;10.26;43.83
46756;BME280;32506;52.826;-1.192;2023-05-21T07:22:29;101789.22;;;10.37;43.70
46756;BME280;32506;52.826;-1.192;2023-05-21T07:24:55;101791.47;;;10.49;44.37
46756;BME280;32506;52.826;-1.192;2023-05-21T07:27:20;101793.50;;;10.62;43.89
46756;BME280;32506;52.826;-1.192;2023-05-21T07:29:46;101788.72;;;10.72;44.27
46756;BME280;32506;52.826;-1.192;2023-05-21T07:32:11;101781.88;;;10.84;44.44
46756;BME280;32506;52.826;-1.192;2023-05-21T07:34:36;101796.44;;;10.97;44.65
46756;BME280;32506;52.826;-1.192;2023-05-21T07:37:02;101799.47;;;11.08;45.01
46756;BME280;32506;52.826;-1.192;2023-05-21T07:39:27;101801.31;;;11.23;44.88
46756;BME280;32506;52.826;-1.192;2023-05-21T07:41:53;101797.94;;;11.36;44.80
46756;BME280;32506;52.826;-1.192;2023-05-21T07:44:19;101784.72;;;11.49;44.82
46756;BME280;32506;52.826;-1.192;2023-05-21T07:46:44;101789.38;;;11.62;45.23
46756;BME280;32506;52.826;-1.192;2023-05-21T07:49:10;101794.88;;;11.75;45.27
46756;BME280;32506;52.826;-1.192;2023-05-21T07:51:43;101789.47;;;11.90;45.33
46756;BME280;32506;52.826;-1.192;2023-05-21T07:54:09;101793.97;;;12.05;45.48
46756;BME280;32506;52.826;-1.192;2023-05-21T07:56:35;101794.69;;;12.20;45.60
46756;BME280;32506;52.826;-1.192;2023-05-21T07:59:00;101798.13;;;12.36;45.65
46756;BME280;32506;52.826;-1.192;2023-05-21T08:01:28;101795.13;;;12.52;45.62
46756;BME280;32506;52.826;-1.192;2023-05-21T08:03:54;101802.03;;;12.68;46.26
46756;BME280;32506;52.826;-1.192;2023-05-21T08:06:20;101796.16;;;12.86;45.93
46756;BME280;32506;52.826;-1.192;2023-05-21T08:08:46;101790.69;;;13.01;46.10
46756;BME280;32506;52.826;-1.192;2023-05-21T08:11:12;101790.94;;;13.20;45.80
46756;BME280;32506;52.826;-1.192;2023-05-21T08:13:40;101781.72;;;13.36;46.08
46756;BME280;32506;52.826;-1.192;2023-05-21T08:16:06;101779.31;;;13.54;46.10
46756;BME280;32506;52.826;-1.192;2023-05-21T08:18:31;101784.94;;;13.73;46.35
46756;BME280;32506;52.826;-1.192;2023-05-21T08:20:57;101775.44;;;13.90;46.01
46756;BME280;32506;52.826;-1.192;2023-05-21T08:23:22;101777.31;;;14.10;46.00
46756;BME280;32506;52.826;-1.192;2023-05-21T08:25:48;101778.13;;;14.31;46.00
46756;BME280;32506;52.826;-1.192;2023-05-21T08:28:13;101770.84;;;14.51;46.09
46756;BME280;32506;52.826;-1.192;2023-05-21T08:30:39;101772.69;;;14.71;46.18
46756;BME280;32506;52.826;-1.192;2023-05-21T08:33:05;101769.72;;;14.92;46.12
46756;BME280;32506;52.826;-1.192;2023-05-21T08:35:30;101770.06;;;15.16;46.08
46756;BME280;32506;52.826;-1.192;2023-05-21T08:37:56;101767.84;;;15.38;46.20
46756;BME280;32506;52.826;-1.192;2023-05-21T08:40:21;101768.13;;;15.62;45.87
46756;BME280;32506;52.826;-1.192;2023-05-21T08:42:48;101771.31;;;15.84;45.83
46756;BME280;32506;52.826;-1.192;2023-05-21T08:45:18;101766.97;;;16.08;45.69
46756;BME280;32506;52.826;-1.192;2023-05-21T08:47:44;101770.69;;;16.33;45.58
46756;BME280;32506;52.826;-1.192;2023-05-21T08:50:12;101774.19;;;16.58;45.26
46756;BME280;32506;52.826;-1.192;2023-05-21T08:52:40;101764.38;;;16.83;44.93
46756;BME280;32506;52.826;-1.192;2023-05-21T08:55:07;101764.28;;;17.08;44.92
46756;BME280;32506;52.826;-1.192;2023-05-21T08:57:33;101765.00;;;17.34;44.61
46756;BME280;32506;52.826;-1.192;2023-05-21T09:00:00;101765.66;;;17.59;44.36
46756;BME280;32506;52.826;-1.192;2023-05-21T09:02:33;101769.59;;;17.87;44.27
46756;BME280;32506;52.826;-1.192;2023-05-21T09:04:59;101767.56;;;18.13;43.93
46756;BME280;32506;52.826;-1.192;2023-05-21T09:07:28;101767.28;;;18.38;43.60
46756;BME280;32506;52.826;-1.192;2023-05-21T09:09:57;101764.09;;;18.65;43.26
46756;BME280;32506;52.826;-1.192;2023-05-21T09:12:26;101774.41;;;18.92;43.05
46756;BME280;32506;52.826;-1.192;2023-05-21T09:14:52;101759.75;;;19.17;42.90
46756;BME280;32506;52.826;-1.192;2023-05-21T09:17:18;101761.03;;;19.43;42.55
46756;BME280;32506;52.826;-1.192;2023-05-21T09:23:02;101761.50;;;20.03;41.98
46756;BME280;32506;52.826;-1.192;2023-05-21T09:25:30;101763.22;;;20.26;41.71
46756;BME280;32506;52.826;-1.192;2023-05-21T09:27:57;101751.88;;;20.51;41.48
46756;BME280;32506;52.826;-1.192;2023-05-21T09:30:23;101751.16;;;20.78;41.38
46756;BME280;32506;52.826;-1.192;2023-05-21T09:32:55;101747.09;;;21.03;41.26
46756;BME280;32506;52.826;-1.192;2023-05-21T09:35:21;101748.72;;;21.26;40.85
46756;BME280;32506;52.826;-1.192;2023-05-21T09:37:47;101754.66;;;21.50;40.74
46756;BME280;32506;52.826;-1.192;2023-05-21T09:42:44;101750.19;;;21.99;40.68
46756;BME280;32506;52.826;-1.192;2023-05-21T09:45:10;101747.31;;;22.21;40.34
46756;BME280;32506;52.826;-1.192;2023-05-21T09:47:43;101745.03;;;22.45;39.97
46756;BME280;32506;52.826;-1.192;2023-05-21T09:50:12;101744.03;;;22.67;39.76
46756;BME280;32506;52.826;-1.192;2023-05-21T09:52:38;101740.31;;;22.88;39.71
46756;BME280;32506;52.826;-1.192;2023-05-21T09:55:10;101745.28;;;23.12;39.50
46756;BME280;32506;52.826;-1.192;2023-05-21T09:57:42;101745.34;;;23.33;39.29
46756;BME280;32506;52.826;-1.192;2023-05-21T10:00:17;101738.53;;;23.56;39.29
46756;BME280;32506;52.826;-1.192;2023-05-21T10:02:44;101736.88;;;23.75;39.12
46756;BME280;32506;52.826;-1.192;2023-05-21T10:05:12;101736.06;;;23.95;39.02
46756;BME280;32506;52.826;-1.192;2023-05-21T10:07:41;101734.94;;;24.17;38.88
46756;BME280;32506;52.826;-1.192;2023-05-21T10:10:10;101735.19;;;24.36;38.46
46756;BME280;32506;52.826;-1.192;2023-05-21T10:12:40;101731.56;;;24.56;38.35
46756;BME280;32506;52.826;-1.192;2023-05-21T10:15:08;101735.03;;;24.77;38.30
46756;BME280;32506;52.826;-1.192;2023-05-21T10:17:35;101726.47;;;24.94;38.12
46756;BME280;32506;52.826;-1.192;2023-05-21T10:20:01;101733.19;;;25.12;37.56
46756;BME280;32506;52.826;-1.192;2023-05-21T10:22:29;101724.31;;;25.31;37.28
46756;BME280;32506;52.826;-1.192;2023-05-21T10:24:55;101718.47;;;25.48;37.24
46756;BME280;32506;52.826;-1.192;2023-05-21T10:27:21;101721.59;;;25.66;36.90
46756;BME280;32506;52.826;-1.192;2023-05-21T10:29:50;101725.53;;;25.84;36.80
46756;BME280;32506;52.826;-1.192;2023-05-21T10:32:19;101722.34;;;26.01;36.82
46756;BME280;32506;52.826;-1.192;2023-05-21T10:34:46;101721.09;;;26.17;36.34
46756;BME280;32506;52.826;-1.192;2023-05-21T10:37:13;101719.84;;;26.34;36.50
46756;BME280;32506;52.826;-1.192;2023-05-21T10:39:43;101720.47;;;26.50;36.16
46756;BME280;32506;52.826;-1.192;2023-05-21T10:42:20;101716.13;;;26.68;36.26
46756;BME280;32506;52.826;-1.192;2023-05-21T10:45:04;101707.41;;;26.85;35.67
46756;BME280;32506;52.826;-1.192;2023-05-21T10:53:20;101701.69;;;27.38;35.35
46756;BME280;32506;52.826;-1.192;2023-05-21T10:56:17;101706.09;;;27.53;34.81
46756;BME280;32506;52.826;-1.192;2023-05-21T10:59:09;101703.91;;;27.69;35.13
46756;BME280;32506;52.826;-1.192;2023-05-21T11:01:37;101697.09;;;27.80;35.39
46756;BME280;32506;52.826;-1.192;2023-05-21T11:04:04;101697.09;;;27.94;35.07
46756;BME280;32506;52.826;-1.192;2023-05-21T11:06:32;101696.63;;;28.06;34.60
46756;BME280;32506;52.826;-1.192;2023-05-21T11:09:10;101697.16;;;28.22;35.09
46756;BME280;32506;52.826;-1.192;2023-05-21T11:11:49;101690.81;;;28.36;34.66
46756;BME280;32506;52.826;-1.192;2023-05-21T11:14:38;101684.19;;;28.51;34.52
46756;BME280;32506;52.826;-1.192;2023-05-21T11:17:36;101684.44;;;28.63;34.53
46756;BME280;32506;52.826;-1.192;2023-05-21T11:20:03;101682.63;;;28.72;34.34
46756;BME280;32506;52.826;-1.192;2023-05-21T11:22:34;101687.28;;;28.86;34.09
46756;BME280;32506;52.826;-1.192;2023-05-21T11:25:03;101689.47;;;28.98;33.93
46756;BME280;32506;52.826;-1.192;2023-05-21T11:27:33;101695.56;;;29.08;33.94
46756;BME280;32506;52.826;-1.192;2023-05-21T11:29:58;101681.56;;;29.19;33.75
46756;BME280;32506;52.826;-1.192;2023-05-21T11:32:25;101686.84;;;29.29;33.14
46756;BME280;32506;52.826;-1.192;2023-05-21T11:34:50;101679.94;;;29.40;33.15
46756;BME280;32506;52.826;-1.192;2023-05-21T11:37:22;101679.34;;;29.52;33.46
46756;BME280;32506;52.826;-1.192;2023-05-21T11:39:49;101676.03;;;29.64;33.02
46756;BME280;32506;52.826;-1.192;2023-05-21T11:42:41;101674.94;;;29.83;33.09
46756;BME280;32506;52.826;-1.192;2023-05-21T11:45:08;101672.59;;;29.90;33.09
46756;BME280;32506;52.826;-1.192;2023-05-21T11:47:35;101671.50;;;30.00;32.64
46756;BME280;32506;52.826;-1.192;2023-05-21T11:50:02;101667.63;;;30.09;32.99
46756;BME280;32506;52.826;-1.192;2023-05-21T11:52:31;101667.66;;;30.18;32.27
46756;BME280;32506;52.826;-1.192;2023-05-21T11:54:57;101659.72;;;30.25;32.65
46756;BME280;32506;52.826;-1.192;2023-05-21T11:57:27;101664.75;;;30.32;32.71
46756;BME280;32506;52.826;-1.192;2023-05-21T11:59:56;101660.22;;;30.36;32.25
46756;BME280;32506;52.826;-1.192;2023-05-21T12:02:30;101654.56;;;30.41;32.47
46756;BME280;32506;52.826;-1.192;2023-05-21T12:04:56;101657.19;;;30.46;32.67
46756;BME280;32506;52.826;-1.192;2023-05-21T12:07:27;101661.06;;;30.37;27.07
46756;BME280;32506;52.826;-1.192;2023-05-21T12:09:56;101651.09;;;30.09;26.04
46756;BME280;32506;52.826;-1.192;2023-05-21T12:12:24;101661.97;;;29.74;26.59
46756;BME280;32506;52.826;-1.192;2023-05-21T12:14:54;101653.53;;;29.39;26.86
46756;BME280;32506;52.826;-1.192;2023-05-21T12:17:20;101656.72;;;29.10;27.25
46756;BME280;32506;52.826;-1.192;2023-05-21T12:19:46;101662.03;;;28.84;27.33
46756;BME280;32506;52.826;-1.192;2023-05-21T12:22:22;101648.69;;;28.63;26.00
46756;BME280;32506;52.826;-1.192;2023-05-21T12:24:49;101650.81;;;28.43;26.81
46756;BME280;32506;52.826;-1.192;2023-05-21T12:27:14;101656.13;;;28.26;27.34
46756;BME280;32506;52.826;-1.192;2023-05-21T12:29:46;101653.38;;;28.12;27.15
46756;BME280;32506;52.826;-1.192;2023-05-21T12:32:13;101653.06;;;28.00;27.41
46756;BME280;32506;52.826;-1.192;2023-05-21T12:34:50;101657.63;;;27.90;27.86
46756;BME280;32506;52.826;-1.192;2023-05-21T12:37:29;101658.44;;;27.77;27.56
46756;BME280;32506;52.826;-1.192;2023-05-21T12:40:03;101644.47;;;27.59;27.20
46756;BME280;32506;52.826;-1.192;2023-05-21T12:42:36;101646.91;;;27.47;28.42
46756;BME280;32506;52.826;-1.192;2023-05-21T12:45:08;101644.25;;;27.42;28.24
46756;BME280;32506;52.826;-1.192;2023-05-21T12:47:33;101641.88;;;27.35;28.47
46756;BME280;32506;52.826;-1.192;2023-05-21T12:50:01;101637.78;;;27.33;28.37
46756;BME280;32506;52.826;-1.192;2023-05-21T12:52:27;101639.81;;;27.27;28.16
46756;BME280;32506;52.826;-1.192;2023-05-21T12:54:58;101641.84;;;27.21;28.45
46756;BME280;32506;52.826;-1.192;2023-05-21T12:57:26;101646.59;;;27.16;28.54